Time;durP1;ratioP1;P1;durP2;ratioP2;P2;SDS_P1;SDS_P2;PMS_P1;PMS_P2;Temp;Humidity;BMP_temperature;BMP_pressure;BME280_temperature;BME280_humidity;BME280_pressure;Samples;Min_cycle;Max_cycle;Signal;HPM_P1;HPM_P2
2022/05/02 00:01:24;;;;;;;;;;;14.90;63.00;;;;;;5016289;28;19909;-59
2022/05/02 00:03:50;;;;;;;;;;;14.80;63.60;;;;;;5016280;28;19913;-58
2022/05/02 00:06:15;;;;;;;;;;;14.80;63.70;;;;;;5016358;28;20378;-58
2022/05/02 00:08:41;;;;;;;;;;;14.90;63.70;;;;;;5016196;28;19909;-62
2022/05/02 00:11:06;;;;;;;;;;;14.90;63.60;;;;;;5016306;28;19964;-63
2022/05/02 00:13:32;;;;;;;;;;;14.90;63.50;;;;;;5016193;28;19939;-63
2022/05/02 00:15:58;;;;;;;;;;;14.90;63.90;;;;;;5016183;28;19987;-62
2022/05/02 00:18:23;;;;;;;;;;;14.90;64.30;;;;;;5016073;28;19917;-64
2022/05/02 00:20:49;;;;;;;;;;;14.90;64.00;;;;;;5016147;28;19936;-62
2022/05/02 00:23:15;;;;;;;;;;;14.80;64.30;;;;;;5015777;28;19918;-58
2022/05/02 00:25:40;;;;;;;;;;;14.90;64.60;;;;;;5015252;28;20380;-59
2022/05/02 00:28:10;;;;;;;;;;;14.90;64.20;;;;;;5015100;28;20005;-59
2022/05/02 00:30:36;;;;;;;;;;;14.90;64.20;;;;;;5016111;28;19921;-57
2022/05/02 00:33:01;;;;;;;;;;;14.90;64.60;;;;;;5016003;28;19910;-59
2022/05/02 00:35:27;;;;;;;;;;;15.00;64.30;;;;;;5014608;28;19952;-61
2022/05/02 00:37:53;;;;;;;;;;;15.00;64.30;;;;;;5015810;28;20396;-59
2022/05/02 00:40:18;;;;;;;;;;;15.00;64.50;;;;;;5015736;28;20384;-60
2022/05/02 00:42:45;;;;;;;;;;;15.00;64.70;;;;;;5015568;28;19921;-56
2022/05/02 00:45:11;;;;;;;;;;;14.90;65.10;;;;;;5015649;28;19955;-59
2022/05/02 00:47:37;;;;;;;;;;;14.90;65.30;;;;;;5015471;28;19916;-59
2022/05/02 00:50:04;;;;;;;;;;;14.80;65.70;;;;;;5015639;28;19910;-59
2022/05/02 00:52:30;;;;;;;;;;;14.80;66.00;;;;;;5015301;28;20383;-59
2022/05/02 00:54:55;;;;;;;;;;;14.80;65.80;;;;;;5013784;28;19913;-62
2022/05/02 00:57:21;;;;;;;;;;;14.80;65.60;;;;;;5015370;28;19916;-58
2022/05/02 00:59:46;;;;;;;;;;;14.70;66.00;;;;;;5015358;28;19910;-58
2022/05/02 01:02:14;;;;;;;;;;;14.50;66.60;;;;;;5015123;28;20419;-59
2022/05/02 01:04:40;;;;;;;;;;;14.40;67.20;;;;;;5015134;28;19921;-59
2022/05/02 01:07:08;;;;;;;;;;;14.40;67.30;;;;;;5015162;28;19913;-59
2022/05/02 01:09:35;;;;;;;;;;;14.40;67.30;;;;;;5015289;28;19952;-61
2022/05/02 01:12:01;;;;;;;;;;;14.40;68.00;;;;;;5015022;28;19920;-58
2022/05/02 01:14:27;;;;;;;;;;;14.50;67.80;;;;;;5013806;28;20626;-58
2022/05/02 01:16:53;;;;;;;;;;;14.50;67.90;;;;;;5015142;28;19909;-62
2022/05/02 01:19:19;;;;;;;;;;;14.60;67.40;;;;;;5015040;28;20063;-59
2022/05/02 01:21:44;;;;;;;;;;;14.60;67.50;;;;;;5015032;28;19933;-60
2022/05/02 01:24:10;;;;;;;;;;;14.70;67.50;;;;;;5014788;28;20321;-60
2022/05/02 01:26:37;;;;;;;;;;;14.70;67.20;;;;;;5014972;28;20014;-60
2022/05/02 01:29:03;;;;;;;;;;;14.60;67.50;;;;;;5014826;28;19909;-59
2022/05/02 01:31:29;;;;;;;;;;;14.70;67.20;;;;;;5014798;28;19913;-59
2022/05/02 01:33:55;;;;;;;;;;;14.60;67.40;;;;;;5014845;28;20313;-59
2022/05/02 01:36:21;;;;;;;;;;;14.60;67.70;;;;;;5014680;28;19941;-59
2022/05/02 01:38:47;;;;;;;;;;;14.50;68.00;;;;;;5013350;28;19909;-60
2022/05/02 01:41:13;;;;;;;;;;;14.50;68.20;;;;;;5014663;28;20365;-57
2022/05/02 01:43:39;;;;;;;;;;;14.60;68.60;;;;;;5014448;28;19922;-60
2022/05/02 01:46:05;;;;;;;;;;;14.40;68.70;;;;;;5014611;28;20326;-58
2022/05/02 01:48:31;;;;;;;;;;;14.50;68.80;;;;;;5014430;28;19935;-59
2022/05/02 01:50:57;;;;;;;;;;;14.40;69.30;;;;;;5014475;28;19974;-58
2022/05/02 01:53:23;;;;;;;;;;;14.50;69.20;;;;;;5014240;28;19920;-59
2022/05/02 01:55:48;;;;;;;;;;;14.70;68.70;;;;;;5014431;28;19921;-59
2022/05/02 01:58:14;;;;;;;;;;;14.60;68.60;;;;;;5014265;28;19960;-60
2022/05/02 02:00:40;;;;;;;;;;;14.50;68.00;;;;;;5014264;28;19952;-61
2022/05/02 02:03:05;;;;;;;;;;;14.60;68.80;;;;;;5014160;28;20002;-57
2022/05/02 02:05:49;;;;;;;;;;;14.60;68.60;;;;;;5013948;28;19909;-59
2022/05/02 02:08:22;;;;;;;;;;;14.60;67.90;;;;;;5014030;28;19909;-59
2022/05/02 02:10:49;;;;;;;;;;;14.50;68.00;;;;;;5013991;28;19910;-59
2022/05/02 02:13:15;;;;;;;;;;;14.60;68.00;;;;;;5013944;28;19977;-57
2022/05/02 02:15:40;;;;;;;;;;;14.70;67.80;;;;;;5013821;28;19913;-59
2022/05/02 02:18:06;;;;;;;;;;;14.70;67.50;;;;;;5013910;28;19909;-59
2022/05/02 02:20:32;;;;;;;;;;;14.80;67.30;;;;;;5013946;28;19910;-61
2022/05/02 02:22:58;;;;;;;;;;;14.80;67.10;;;;;;5013750;28;19924;-57
2022/05/02 02:25:23;;;;;;;;;;;14.80;67.10;;;;;;5013454;28;19922;-60
2022/05/02 02:27:49;;;;;;;;;;;14.90;66.90;;;;;;5014296;28;19916;-58
2022/05/02 02:30:16;;;;;;;;;;;14.80;66.90;;;;;;5012413;28;19971;-58
2022/05/02 02:32:42;;;;;;;;;;;14.80;66.90;;;;;;5013575;28;20419;-59
2022/05/02 02:35:08;;;;;;;;;;;14.80;66.90;;;;;;5013768;28;19936;-58
2022/05/02 02:37:33;;;;;;;;;;;14.70;67.40;;;;;;5014890;28;19917;-58
2022/05/02 02:39:59;;;;;;;;;;;14.60;68.00;;;;;;5021009;28;19909;-57
2022/05/02 02:42:24;;;;;;;;;;;14.60;67.80;;;;;;5013210;28;19964;-59
2022/05/02 02:44:50;;;;;;;;;;;14.70;67.80;;;;;;5013567;28;19944;-59
2022/05/02 02:47:16;;;;;;;;;;;14.50;67.90;;;;;;5013406;28;19909;-60
2022/05/02 02:49:41;;;;;;;;;;;14.50;68.40;;;;;;5013507;28;20362;-60
2022/05/02 02:52:08;;;;;;;;;;;14.50;68.30;;;;;;5013226;28;19969;-60
2022/05/02 02:54:34;;;;;;;;;;;14.40;69.00;;;;;;5013406;28;19913;-63
2022/05/02 02:56:59;;;;;;;;;;;14.40;68.80;;;;;;5013421;28;20361;-60
2022/05/02 02:59:25;;;;;;;;;;;14.40;67.90;;;;;;5013296;28;19909;-58
2022/05/02 03:01:50;;;;;;;;;;;14.40;68.50;;;;;;5013647;28;19918;-58
2022/05/02 03:07:01;;;;;;;;;;;14.40;68.10;;;;;;5013123;28;19916;-59
2022/05/02 03:09:27;;;;;;;;;;;14.50;67.90;;;;;;5012969;28;20000;-58
2022/05/02 03:11:53;;;;;;;;;;;14.40;68.10;;;;;;5013152;28;19916;-58
2022/05/02 03:14:19;;;;;;;;;;;14.30;68.40;;;;;;5013075;28;19909;-58
2022/05/02 03:16:44;;;;;;;;;;;14.40;68.20;;;;;;5013134;28;19917;-62
2022/05/02 03:19:10;;;;;;;;;;;14.40;68.40;;;;;;5012980;28;20008;-65
2022/05/02 03:21:36;;;;;;;;;;;14.20;68.90;;;;;;5012973;28;20258;-65
2022/05/02 03:24:01;;;;;;;;;;;14.20;68.80;;;;;;5012904;28;19925;-62
2022/05/02 03:26:27;;;;;;;;;;;14.30;68.60;;;;;;5012951;28;20273;-60
2022/05/02 03:28:52;;;;;;;;;;;14.30;68.30;;;;;;5012929;28;19933;-61
2022/05/02 03:31:18;;;;;;;;;;;14.20;68.60;;;;;;5012900;28;19917;-62
2022/05/02 03:33:43;;;;;;;;;;;14.20;68.90;;;;;;5012890;28;19910;-62
2022/05/02 03:36:09;;;;;;;;;;;14.30;68.10;;;;;;5012867;28;19910;-58
2022/05/02 03:38:34;;;;;;;;;;;14.30;68.20;;;;;;5012771;28;20000;-58
2022/05/02 03:41:00;;;;;;;;;;;14.20;68.10;;;;;;5011459;28;19924;-59
2022/05/02 03:43:25;;;;;;;;;;;14.30;68.20;;;;;;5012550;28;19937;-60
2022/05/02 03:45:51;;;;;;;;;;;14.20;68.40;;;;;;5012676;28;19909;-58
2022/05/02 03:48:16;;;;;;;;;;;14.20;68.40;;;;;;5012770;28;20381;-58
2022/05/02 03:50:42;;;;;;;;;;;14.20;68.50;;;;;;5012757;28;20297;-58
2022/05/02 03:53:08;;;;;;;;;;;14.10;69.10;;;;;;5012582;28;20318;-58
2022/05/02 03:55:33;;;;;;;;;;;14.10;68.60;;;;;;5012578;28;20024;-59
2022/05/02 03:57:59;;;;;;;;;;;14.10;69.00;;;;;;5012556;28;19916;-60
2022/05/02 04:00:25;;;;;;;;;;;14.10;69.10;;;;;;5012881;28;20247;-58
2022/05/02 04:02:51;;;;;;;;;;;14.10;68.80;;;;;;5012298;28;19918;-57
2022/05/02 04:05:16;;;;;;;;;;;14.00;68.90;;;;;;5012712;28;19922;-59
2022/05/02 04:07:42;;;;;;;;;;;14.00;69.20;;;;;;5012590;28;19909;-58
2022/05/02 04:10:08;;;;;;;;;;;14.10;69.00;;;;;;5012629;28;19936;-58
2022/05/02 04:12:34;;;;;;;;;;;14.10;68.80;;;;;;5012274;28;19909;-57
2022/05/02 04:15:00;;;;;;;;;;;14.10;69.00;;;;;;5012374;28;19931;-57
2022/05/02 04:17:26;;;;;;;;;;;14.10;69.00;;;;;;5012625;28;19914;-58
2022/05/02 04:19:51;;;;;;;;;;;14.20;68.60;;;;;;5012419;28;19916;-59
2022/05/02 04:22:17;;;;;;;;;;;14.20;68.70;;;;;;5012245;28;19921;-57
2022/05/02 04:24:42;;;;;;;;;;;14.10;68.80;;;;;;5012167;28;19925;-59
2022/05/02 04:27:08;;;;;;;;;;;14.10;69.00;;;;;;5012319;28;19920;-58
2022/05/02 04:29:33;;;;;;;;;;;14.10;69.10;;;;;;5012739;28;19913;-58
2022/05/02 04:31:59;;;;;;;;;;;14.10;69.00;;;;;;5015845;28;20332;-60
2022/05/02 04:34:26;;;;;;;;;;;14.10;69.00;;;;;;5015935;28;20269;-58
2022/05/02 04:36:52;;;;;;;;;;;14.20;68.80;;;;;;5015923;28;19949;-58
2022/05/02 04:39:17;;;;;;;;;;;14.10;68.90;;;;;;5015682;28;20415;-58
2022/05/02 04:41:43;;;;;;;;;;;14.20;68.70;;;;;;5015513;28;20333;-59
2022/05/02 04:44:08;;;;;;;;;;;14.10;69.20;;;;;;5015870;28;19916;-58
2022/05/02 04:46:34;;;;;;;;;;;14.20;68.90;;;;;;5014437;28;19917;-59
2022/05/02 04:49:00;;;;;;;;;;;14.10;69.60;;;;;;5015725;28;19918;-61
2022/05/02 04:51:25;;;;;;;;;;;14.10;69.50;;;;;;5015609;28;20348;-58
2022/05/02 04:53:51;;;;;;;;;;;14.20;69.80;;;;;;5015571;28;19946;-57
2022/05/02 04:56:16;;;;;;;;;;;14.10;69.70;;;;;;5015580;28;19910;-58
2022/05/02 04:58:42;;;;;;;;;;;14.20;69.40;;;;;;5015366;28;20004;-58
2022/05/02 05:01:07;;;;;;;;;;;14.30;69.30;;;;;;5015498;28;19909;-57
2022/05/02 05:03:34;;;;;;;;;;;14.20;69.10;;;;;;5015250;28;19918;-58
2022/05/02 05:06:00;;;;;;;;;;;14.20;69.40;;;;;;5015721;28;20341;-58
2022/05/02 05:08:25;;;;;;;;;;;14.10;69.90;;;;;;5015366;28;19909;-58
2022/05/02 05:11:02;;;;;;;;;;;14.10;70.20;;;;;;5015427;28;19956;-58
2022/05/02 05:13:32;;;;;;;;;;;14.10;70.60;;;;;;5014202;28;20402;-58
2022/05/02 05:16:22;;;;;;;;;;;14.10;71.40;;;;;;5015110;28;19917;-57
2022/05/02 05:19:10;;;;;;;;;;;14.10;70.70;;;;;;5015235;28;19956;-58
2022/05/02 05:21:39;;;;;;;;;;;14.10;70.20;;;;;;5009231;28;19914;-57
2022/05/02 05:24:10;;;;;;;;;;;14.10;70.60;;;;;;5014846;28;20056;-58
2022/05/02 05:26:46;;;;;;;;;;;14.10;70.80;;;;;;5015029;28;19920;-57
2022/05/02 05:29:30;;;;;;;;;;;14.10;70.40;;;;;;5014952;28;19952;-57
2022/05/02 05:32:01;;;;;;;;;;;14.20;70.20;;;;;;5014681;28;19988;-58
2022/05/02 05:34:56;;;;;;;;;;;14.30;70.00;;;;;;5014798;28;19916;-58
2022/05/02 05:37:24;;;;;;;;;;;14.20;70.70;;;;;;5014799;28;19914;-57
2022/05/02 05:40:08;;;;;;;;;;;14.20;70.50;;;;;;5014836;28;19914;-57
2022/05/02 05:42:34;;;;;;;;;;;14.30;70.80;;;;;;5014237;28;19922;-60
2022/05/02 05:45:03;;;;;;;;;;;14.30;71.00;;;;;;5015555;28;19984;-59
2022/05/02 05:47:32;;;;;;;;;;;14.40;70.40;;;;;;5014212;28;20358;-57
2022/05/02 05:49:58;;;;;;;;;;;14.40;70.30;;;;;;5015108;28;20357;-57
2022/05/02 05:52:33;;;;;;;;;;;14.60;69.90;;;;;;5014344;28;19921;-58
2022/05/02 05:55:06;;;;;;;;;;;14.90;69.10;;;;;;5014430;28;19932;-57
2022/05/02 05:57:37;;;;;;;;;;;15.30;68.10;;;;;;5014517;28;19963;-58
2022/05/02 06:00:06;;;;;;;;;;;15.60;66.10;;;;;;5014382;28;19945;-59
2022/05/02 06:02:31;;;;;;;;;;;16.00;66.40;;;;;;5014271;28;20400;-60
2022/05/02 06:04:58;;;;;;;;;;;16.10;65.00;;;;;;5014195;28;19953;-61
2022/05/02 06:07:26;;;;;;;;;;;16.40;65.00;;;;;;5014040;28;19916;-62
2022/05/02 06:09:52;;;;;;;;;;;16.40;63.50;;;;;;5014057;28;19987;-64
2022/05/02 06:12:19;;;;;;;;;;;16.70;62.90;;;;;;5014165;28;19910;-63
2022/05/02 06:20:14;;;;;;;;;;;16.70;61.70;;;;;;5014181;28;19917;-64
2022/05/02 06:22:40;;;;;;;;;;;16.80;61.60;;;;;;5013729;28;20114;-62
2022/05/02 06:25:06;;;;;;;;;;;16.60;61.40;;;;;;5013618;28;20037;-62
2022/05/02 06:27:32;;;;;;;;;;;16.60;62.50;;;;;;5013643;28;19956;-62
2022/05/02 06:29:59;;;;;;;;;;;16.80;62.10;;;;;;5013674;28;20487;-63
2022/05/02 06:32:25;;;;;;;;;;;17.10;61.00;;;;;;5013570;28;19909;-62
2022/05/02 06:34:51;;;;;;;;;;;17.30;59.90;;;;;;5013648;28;19998;-61
2022/05/02 06:37:35;;;;;;;;;;;17.20;60.10;;;;;;5013587;28;19913;-63
2022/05/02 06:40:06;;;;;;;;;;;17.30;59.90;;;;;;5013586;28;20273;-62
2022/05/02 06:42:35;;;;;;;;;;;17.10;60.00;;;;;;5013339;28;20266;-61
2022/05/02 06:45:03;;;;;;;;;;;17.20;60.00;;;;;;5013479;28;19920;-65
2022/05/02 06:47:29;;;;;;;;;;;17.10;60.50;;;;;;5013111;28;19913;-64
2022/05/02 06:49:57;;;;;;;;;;;17.10;60.60;;;;;;5013028;28;19910;-62
2022/05/02 06:52:31;;;;;;;;;;;17.00;61.10;;;;;;5012866;28;19909;-61
2022/05/02 06:55:06;;;;;;;;;;;17.10;60.90;;;;;;5012860;28;19914;-61
2022/05/02 06:57:31;;;;;;;;;;;17.10;60.60;;;;;;5013270;28;19979;-61
2022/05/02 07:00:06;;;;;;;;;;;17.20;61.30;;;;;;5013240;28;20377;-62
2022/05/02 07:02:32;;;;;;;;;;;17.20;60.30;;;;;;5013439;28;19972;-60
2022/05/02 07:05:00;;;;;;;;;;;17.20;61.00;;;;;;5013078;28;19941;-61
2022/05/02 07:07:26;;;;;;;;;;;17.60;60.00;;;;;;5013251;28;19913;-61
2022/05/02 07:09:52;;;;;;;;;;;17.90;59.30;;;;;;5012988;28;19916;-64
2022/05/02 07:12:18;;;;;;;;;;;18.20;58.30;;;;;;5011614;28;20379;-63
2022/05/02 07:15:05;;;;;;;;;;;18.30;58.00;;;;;;5012402;28;19922;-65
2022/05/02 07:17:30;;;;;;;;;;;18.40;58.20;;;;;;5013100;28;19917;-63
2022/05/02 07:20:06;;;;;;;;;;;18.60;56.90;;;;;;5013023;28;20365;-64
2022/05/02 07:22:58;;;;;;;;;;;18.90;56.00;;;;;;5012884;28;19983;-63
2022/05/02 07:25:24;;;;;;;;;;;19.20;55.60;;;;;;4989330;28;19925;-62
2022/05/02 07:27:59;;;;;;;;;;;19.00;56.40;;;;;;5012451;28;19924;-61
2022/05/02 07:30:25;;;;;;;;;;;19.30;55.90;;;;;;5010250;28;19909;-62
2022/05/02 07:32:53;;;;;;;;;;;19.30;54.60;;;;;;5012068;28;20381;-62
2022/05/02 07:35:19;;;;;;;;;;;19.20;54.70;;;;;;5012261;28;19905;-62
2022/05/02 07:37:46;;;;;;;;;;;19.00;55.80;;;;;;5012355;28;20384;-61
2022/05/02 07:40:14;;;;;;;;;;;18.60;56.80;;;;;;5012050;28;19952;-61
2022/05/02 07:42:41;;;;;;;;;;;18.40;56.80;;;;;;5012061;28;19924;-62
2022/05/02 07:45:10;;;;;;;;;;;18.30;57.30;;;;;;5012218;28;19913;-62
2022/05/02 07:47:36;;;;;;;;;;;18.50;57.10;;;;;;5012496;28;19909;-62
2022/05/02 07:50:02;;;;;;;;;;;18.70;56.30;;;;;;5009870;28;19909;-62
2022/05/02 07:52:28;;;;;;;;;;;18.50;56.70;;;;;;5013118;28;19913;-62
2022/05/02 07:54:55;;;;;;;;;;;18.80;56.90;;;;;;5012582;28;20324;-63
2022/05/02 07:57:23;;;;;;;;;;;19.00;56.10;;;;;;5010705;28;19932;-62
2022/05/02 07:59:50;;;;;;;;;;;19.10;55.80;;;;;;5011816;28;19921;-61
2022/05/02 08:02:16;;;;;;;;;;;19.30;55.50;;;;;;5011907;28;20016;-61
2022/05/02 08:04:42;;;;;;;;;;;19.30;54.90;;;;;;5010024;28;20328;-60
2022/05/02 08:07:26;;;;;;;;;;;19.20;55.00;;;;;;5015867;28;19913;-61
2022/05/02 08:09:52;;;;;;;;;;;19.00;55.20;;;;;;5014533;28;19910;-63
2022/05/02 08:12:33;;;;;;;;;;;19.00;56.20;;;;;;5015606;28;19920;-62
2022/05/02 08:14:59;;;;;;;;;;;19.20;56.20;;;;;;5015863;28;19951;-62
2022/05/02 08:17:44;;;;;;;;;;;19.20;55.20;;;;;;5015985;28;19909;-61
2022/05/02 08:20:28;;;;;;;;;;;19.10;56.00;;;;;;5014138;28;20281;-59
2022/05/02 08:29:10;;;;;;;;;;;19.10;55.30;;;;;;5013309;28;19917;-60
2022/05/02 08:31:37;;;;;;;;;;;19.20;55.90;;;;;;4986678;28;20320;-59
2022/05/02 08:34:29;;;;;;;;;;;19.30;55.70;;;;;;5015079;28;19909;-60
2022/05/02 08:37:06;;;;;;;;;;;19.60;55.90;;;;;;5013465;28;20044;-62
2022/05/02 08:39:36;;;;;;;;;;;19.60;53.40;;;;;;5013766;28;19909;-63
2022/05/02 08:42:05;;;;;;;;;;;19.60;55.10;;;;;;5014947;28;19995;-60
2022/05/02 08:44:36;;;;;;;;;;;19.60;53.90;;;;;;5015486;28;19922;-61
2022/05/02 08:47:17;;;;;;;;;;;20.00;54.30;;;;;;5016003;28;19914;-62
2022/05/02 08:49:51;;;;;;;;;;;20.00;53.50;;;;;;5014257;28;19946;-64
2022/05/02 08:52:33;;;;;;;;;;;20.20;54.20;;;;;;5012724;28;19909;-63
2022/05/02 08:55:08;;;;;;;;;;;20.40;51.90;;;;;;5013701;28;19913;-65
2022/05/02 08:57:47;;;;;;;;;;;20.30;52.90;;;;;;5015690;28;19956;-62
2022/05/02 09:00:22;;;;;;;;;;;20.30;52.20;;;;;;5015736;28;19916;-61
2022/05/02 09:03:03;;;;;;;;;;;20.10;53.10;;;;;;5015437;28;19917;-63
2022/05/02 09:05:37;;;;;;;;;;;19.70;52.20;;;;;;5014768;28;20361;-59
2022/05/02 09:08:09;;;;;;;;;;;19.40;53.80;;;;;;5013887;28;19910;-60
2022/05/02 09:10:37;;;;;;;;;;;19.10;54.30;;;;;;5015562;28;19917;-61
2022/05/02 09:13:30;;;;;;;;;;;19.00;55.40;;;;;;5015466;28;19963;-60
2022/05/02 09:16:14;;;;;;;;;;;19.00;54.40;;;;;;5015247;28;19910;-59
2022/05/02 09:18:53;;;;;;;;;;;18.80;55.20;;;;;;5013173;28;20444;-61
2022/05/02 09:21:46;;;;;;;;;;;18.70;55.30;;;;;;5012892;28;19940;-60
2022/05/02 09:24:20;;;;;;;;;;;18.60;55.60;;;;;;5014608;28;19921;-59
2022/05/02 09:27:05;;;;;;;;;;;18.60;55.40;;;;;;5014036;28;20003;-62
2022/05/02 09:29:49;;;;;;;;;;;18.40;55.40;;;;;;5014366;28;19917;-60
2022/05/02 09:32:30;;;;;;;;;;;18.20;56.00;;;;;;5015119;28;19910;-59
2022/05/02 09:35:02;;;;;;;;;;;18.10;57.20;;;;;;5015184;28;19995;-62
2022/05/02 09:37:30;;;;;;;;;;;18.20;56.30;;;;;;5015217;28;19916;-63
2022/05/02 09:40:04;;;;;;;;;;;18.10;56.50;;;;;;5015085;28;19910;-62
2022/05/02 09:42:48;;;;;;;;;;;18.30;56.80;;;;;;5014904;28;20394;-64
2022/05/02 09:51:22;;;;;;;;;;;18.60;56.10;;;;;;5013218;28;19963;-63
2022/05/02 09:53:47;;;;;;;;;;;18.90;55.90;;;;;;5013196;28;19910;-66
2022/05/02 09:56:38;;;;;;;;;;;19.00;54.70;;;;;;5014633;28;19924;-65
2022/05/02 09:59:09;;;;;;;;;;;19.10;54.70;;;;;;5012719;28;19993;-63
2022/05/02 10:01:37;;;;;;;;;;;19.20;54.30;;;;;;5014477;28;20040;-65
2022/05/02 10:04:11;;;;;;;;;;;19.00;54.00;;;;;;5014575;28;19918;-66
2022/05/02 10:06:50;;;;;;;;;;;19.00;54.40;;;;;;5014568;28;19909;-64
2022/05/02 10:09:30;;;;;;;;;;;18.90;54.40;;;;;;5014343;28;20431;-64
2022/05/02 10:12:02;;;;;;;;;;;18.80;54.30;;;;;;5014408;28;19924;-62
2022/05/02 10:14:28;;;;;;;;;;;18.80;54.40;;;;;;5014404;28;20003;-60
2022/05/02 10:16:57;;;;;;;;;;;19.00;55.00;;;;;;5014075;28;20000;-59
2022/05/02 10:19:23;;;;;;;;;;;19.20;54.60;;;;;;5014172;28;19956;-60
2022/05/02 10:21:57;;;;;;;;;;;19.30;53.80;;;;;;5014366;28;19913;-59
2022/05/02 10:24:34;;;;;;;;;;;19.40;53.20;;;;;;5012051;28;19929;-59
2022/05/02 10:27:20;;;;;;;;;;;19.40;53.40;;;;;;5011562;28;19914;-61
2022/05/02 10:30:01;;;;;;;;;;;19.20;53.70;;;;;;4982355;28;20013;-67
2022/05/02 10:32:32;;;;;;;;;;;19.40;53.80;;;;;;5012526;28;19964;-63
2022/05/02 10:34:59;;;;;;;;;;;19.40;53.00;;;;;;5011239;28;19916;-65
2022/05/02 10:37:31;;;;;;;;;;;19.40;53.80;;;;;;5014545;28;19909;-63
2022/05/02 10:40:10;;;;;;;;;;;19.40;54.10;;;;;;5012817;28;20376;-65
2022/05/02 10:42:36;;;;;;;;;;;19.40;52.50;;;;;;4993652;28;19918;-61
2022/05/02 10:45:05;;;;;;;;;;;19.30;52.20;;;;;;4994085;28;20401;-62
2022/05/02 10:47:50;;;;;;;;;;;19.20;53.20;;;;;;4993787;28;19967;-59
2022/05/02 10:50:31;;;;;;;;;;;19.40;52.90;;;;;;4994016;28;19910;-64
2022/05/02 10:53:07;;;;;;;;;;;19.70;53.30;;;;;;4993372;28;19953;-64
2022/05/02 10:55:34;;;;;;;;;;;19.80;53.40;;;;;;4993165;28;19914;-61
2022/05/02 10:58:08;;;;;;;;;;;20.20;51.90;;;;;;4994770;28;20335;-72
2022/05/02 11:00:42;;;;;;;;;;;20.30;51.50;;;;;;4993745;28;19917;-67
2022/05/02 11:03:22;;;;;;;;;;;20.20;50.70;;;;;;4993712;28;20388;-69
2022/05/02 11:06:01;;;;;;;;;;;20.40;52.70;;;;;;4993424;28;19913;-67
2022/05/02 11:08:32;;;;;;;;;;;20.50;52.00;;;;;;4993548;28;19964;-63
2022/05/02 11:10:58;;;;;;;;;;;20.50;50.10;;;;;;4993695;28;19922;-63
2022/05/02 11:13:27;;;;;;;;;;;20.50;50.80;;;;;;4993353;28;19918;-63
2022/05/02 11:16:16;;;;;;;;;;;20.50;50.00;;;;;;4992822;28;20337;-63
2022/05/02 11:21:35;;;;;;;;;;;20.70;48.60;;;;;;4993331;28;20333;-67
2022/05/02 11:24:19;;;;;;;;;;;20.80;49.50;;;;;;4993661;28;19965;-65
2022/05/02 11:26:50;;;;;;;;;;;20.80;48.30;;;;;;4992532;28;20009;-64
2022/05/02 11:29:18;;;;;;;;;;;20.70;48.40;;;;;;4992967;28;19917;-63
2022/05/02 11:31:48;;;;;;;;;;;20.60;48.30;;;;;;4995291;28;20789;-61
2022/05/02 11:34:13;;;;;;;;;;;20.80;47.90;;;;;;4992774;28;19910;-63
2022/05/02 11:36:44;;;;;;;;;;;21.00;47.30;;;;;;4995168;28;19917;-62
2022/05/02 11:39:14;;;;;;;;;;;21.20;47.40;;;;;;4993185;28;19910;-62
2022/05/02 11:41:44;;;;;;;;;;;21.20;46.40;;;;;;4997138;28;19913;-62
2022/05/02 11:44:12;;;;;;;;;;;21.30;47.60;;;;;;4997380;28;20000;-62
2022/05/02 11:46:49;;;;;;;;;;;21.30;46.70;;;;;;4997265;28;20199;-63
2022/05/02 11:49:23;;;;;;;;;;;21.40;46.10;;;;;;4997331;28;19933;-63
2022/05/02 11:51:50;;;;;;;;;;;21.50;46.70;;;;;;4997190;28;19914;-62
2022/05/02 11:54:16;;;;;;;;;;;21.60;47.00;;;;;;4997176;28;19910;-61
2022/05/02 11:56:53;;;;;;;;;;;21.60;46.70;;;;;;4996920;28;20385;-62
2022/05/02 11:59:21;;;;;;;;;;;21.60;46.40;;;;;;4996759;28;19910;-62
2022/05/02 12:01:48;;;;;;;;;;;21.60;46.50;;;;;;4995908;28;20390;-62
2022/05/02 12:04:15;;;;;;;;;;;21.70;46.50;;;;;;4996586;28;19910;-64
2022/05/02 12:06:57;;;;;;;;;;;21.30;46.00;;;;;;4996297;28;20278;-65
2022/05/02 12:09:23;;;;;;;;;;;21.00;46.80;;;;;;4997328;28;19917;-63
2022/05/02 12:11:55;;;;;;;;;;;21.00;47.70;;;;;;4994538;28;19921;-64
2022/05/02 12:14:22;;;;;;;;;;;21.00;47.70;;;;;;4995152;28;20277;-64
2022/05/02 12:17:06;;;;;;;;;;;20.80;47.70;;;;;;4995281;28;20267;-60
2022/05/02 12:19:33;;;;;;;;;;;20.70;47.30;;;;;;4995127;28;20393;-61
2022/05/02 12:22:05;;;;;;;;;;;20.70;47.50;;;;;;4995320;28;19909;-62
2022/05/02 12:24:34;;;;;;;;;;;20.60;47.90;;;;;;4995062;28;19933;-63
2022/05/02 12:27:00;;;;;;;;;;;20.70;48.50;;;;;;4995134;28;20373;-64
2022/05/02 12:29:27;;;;;;;;;;;20.60;48.00;;;;;;4994745;28;19916;-64
2022/05/02 12:32:00;;;;;;;;;;;20.60;48.00;;;;;;4995062;28;20366;-61
2022/05/02 12:34:35;;;;;;;;;;;20.70;48.10;;;;;;4994991;28;19913;-61
2022/05/02 12:37:04;;;;;;;;;;;20.70;47.90;;;;;;4994979;28;19921;-61
2022/05/02 12:39:45;;;;;;;;;;;20.70;48.30;;;;;;4994413;28;19918;-62
2022/05/02 12:42:13;;;;;;;;;;;20.80;48.60;;;;;;4994660;28;20031;-62
2022/05/02 12:44:43;;;;;;;;;;;21.00;48.30;;;;;;4994959;28;20338;-61
2022/05/02 12:47:11;;;;;;;;;;;21.20;47.60;;;;;;4994963;28;20413;-62
2022/05/02 12:49:57;;;;;;;;;;;21.30;47.60;;;;;;4994285;28;20284;-61
2022/05/02 12:52:26;;;;;;;;;;;21.30;47.80;;;;;;4993908;28;19914;-60
2022/05/02 12:54:54;;;;;;;;;;;21.30;46.70;;;;;;4994666;28;20469;-61
2022/05/02 13:00:30;;;;;;;;;;;21.10;47.90;;;;;;4995049;28;19921;-60
2022/05/02 13:02:58;;;;;;;;;;;21.30;46.60;;;;;;4994510;28;20010;-62
2022/05/02 13:05:28;;;;;;;;;;;21.30;46.10;;;;;;4994260;28;19991;-59
2022/05/02 13:07:55;;;;;;;;;;;21.30;46.10;;;;;;4997646;28;19913;-61
2022/05/02 13:10:20;;;;;;;;;;;21.30;46.40;;;;;;5013987;28;19917;-63
2022/05/02 13:12:57;;;;;;;;;;;21.40;45.80;;;;;;5013599;28;19936;-61
2022/05/02 13:15:24;;;;;;;;;;;21.60;45.70;;;;;;5014165;28;20324;-60
2022/05/02 13:17:51;;;;;;;;;;;21.80;45.30;;;;;;5013980;28;20304;-60
2022/05/02 13:20:17;;;;;;;;;;;21.70;44.60;;;;;;5013762;28;20423;-61
2022/05/02 13:23:03;;;;;;;;;;;21.60;44.50;;;;;;5013506;28;19965;-60
2022/05/02 13:25:47;;;;;;;;;;;21.60;45.60;;;;;;5013576;28;19928;-61
2022/05/02 13:28:16;;;;;;;;;;;21.60;46.30;;;;;;5013706;28;20389;-61
2022/05/02 13:30:48;;;;;;;;;;;21.50;46.20;;;;;;5013472;28;19909;-61
2022/05/02 13:33:16;;;;;;;;;;;21.60;45.60;;;;;;5013716;28;19913;-61
2022/05/02 13:35:42;;;;;;;;;;;21.80;45.30;;;;;;5013996;28;20024;-61
2022/05/02 13:38:14;;;;;;;;;;;21.80;46.10;;;;;;5013539;28;20007;-61
2022/05/02 13:40:57;;;;;;;;;;;22.00;45.50;;;;;;5013138;28;19945;-61
2022/05/02 13:43:44;;;;;;;;;;;21.80;45.30;;;;;;5013273;28;19921;-60
2022/05/02 13:46:33;;;;;;;;;;;21.60;44.00;;;;;;5013285;28;20043;-61
2022/05/02 13:49:03;;;;;;;;;;;21.50;44.00;;;;;;5007884;28;19995;-60
2022/05/02 13:51:41;;;;;;;;;;;21.50;44.70;;;;;;5013121;28;20342;-59
2022/05/02 13:54:09;;;;;;;;;;;21.50;43.30;;;;;;5013716;28;20322;-60
2022/05/02 13:56:38;;;;;;;;;;;21.40;44.40;;;;;;5013717;28;19914;-60
2022/05/02 13:59:20;;;;;;;;;;;21.40;44.80;;;;;;5013769;28;19909;-60
2022/05/02 14:01:58;;;;;;;;;;;21.50;44.30;;;;;;5013060;28;19967;-58
2022/05/02 14:07:24;;;;;;;;;;;21.80;44.00;;;;;;5013624;28;19949;-59
2022/05/02 14:09:49;;;;;;;;;;;21.90;43.90;;;;;;5013051;28;19921;-59
2022/05/02 14:12:23;;;;;;;;;;;22.00;44.40;;;;;;5013381;28;19968;-60
2022/05/02 14:14:54;;;;;;;;;;;22.30;43.50;;;;;;5013601;28;19916;-58
2022/05/02 14:17:42;;;;;;;;;;;22.40;43.20;;;;;;5014915;28;19952;-59
2022/05/02 14:20:12;;;;;;;;;;;22.40;42.90;;;;;;5014973;28;19909;-58
2022/05/02 14:22:38;;;;;;;;;;;22.30;41.60;;;;;;5014970;28;19918;-59
2022/05/02 14:25:08;;;;;;;;;;;22.30;43.10;;;;;;5014952;28;19945;-60
2022/05/02 14:27:33;;;;;;;;;;;22.50;44.00;;;;;;5015029;28;20258;-60
2022/05/02 14:30:01;;;;;;;;;;;22.60;42.80;;;;;;5015457;28;19917;-58
2022/05/02 14:32:45;;;;;;;;;;;22.80;43.00;;;;;;5013348;28;20381;-58
2022/05/02 14:35:21;;;;;;;;;;;22.80;42.70;;;;;;5014490;28;20000;-62
2022/05/02 14:37:47;;;;;;;;;;;22.90;41.00;;;;;;5014574;28;19909;-57
2022/05/02 14:40:13;;;;;;;;;;;22.80;41.80;;;;;;5014463;28;19916;-60
2022/05/02 14:42:39;;;;;;;;;;;22.80;43.20;;;;;;5014579;28;19918;-58
2022/05/02 14:45:05;;;;;;;;;;;22.60;40.10;;;;;;5014614;28;20384;-58
2022/05/02 14:47:32;;;;;;;;;;;22.60;41.70;;;;;;5014084;28;19921;-60
2022/05/02 14:49:59;;;;;;;;;;;22.40;40.00;;;;;;5000285;28;19910;-59
2022/05/02 14:52:26;;;;;;;;;;;22.40;40.90;;;;;;4994554;28;19945;-59
2022/05/02 14:54:54;;;;;;;;;;;22.40;40.20;;;;;;4994424;28;19910;-58
2022/05/02 14:57:22;;;;;;;;;;;22.30;40.10;;;;;;4994868;28;20428;-59
2022/05/02 14:59:50;;;;;;;;;;;22.30;41.20;;;;;;4995038;28;19909;-63
2022/05/02 15:02:18;;;;;;;;;;;22.30;41.00;;;;;;4993048;28;20444;-63